createdAt,value
2023-04-04T00:00:40.350Z,97921.28
2023-04-04T00:03:08.994Z,97916.84
2023-04-04T00:05:38.647Z,97840.31
2023-04-04T00:08:07.408Z,97918.53
2023-04-04T00:10:35.564Z,97928.19
2023-04-04T00:13:05.790Z,97917.63
2023-04-04T00:15:34.744Z,97870.91
2023-04-04T00:18:04.181Z,97934.97
2023-04-04T00:20:32.477Z,97931.47
2023-04-04T00:23:01.993Z,97835.25
2023-04-04T00:25:30.122Z,97908.97
2023-04-04T00:28:01.118Z,97933.19
2023-04-04T00:30:29.800Z,97934.03
2023-04-04T00:32:58.363Z,97930.53
2023-04-04T00:35:26.814Z,97929.69
2023-04-04T00:37:55.033Z,97929.75
2023-04-04T00:40:24.540Z,97919.31
2023-04-04T00:42:53.424Z,97871.63
2023-04-04T00:45:21.743Z,97927.94
2023-04-04T00:47:51.669Z,97930.50
2023-04-04T00:50:20.136Z,97912.28
2023-04-04T00:52:48.331Z,97936.44
2023-04-04T00:55:16.776Z,97925.28
2023-04-04T00:57:46.817Z,97927.00
2023-04-04T01:00:16.676Z,97838.59
2023-04-04T01:02:44.996Z,97931.31
2023-04-04T01:05:13.701Z,97875.94
2023-04-04T01:07:42.998Z,97923.50
2023-04-04T01:10:12.840Z,97921.78
2023-04-04T01:12:41.826Z,97922.66
2023-04-04T01:15:12.617Z,97925.22
2023-04-04T01:17:41.815Z,97900.97
2023-04-04T01:20:14.543Z,97901.81
2023-04-04T01:22:44.844Z,97931.25
2023-04-04T01:25:13.391Z,97915.69
2023-04-04T01:27:42.977Z,97900.03
2023-04-04T01:30:12.924Z,97901.72
2023-04-04T01:32:46.990Z,97884.47
2023-04-04T01:35:23.406Z,97914.81
2023-04-04T01:37:59.073Z,97910.47
2023-04-04T01:40:35.114Z,97912.19
2023-04-04T01:43:04.828Z,97905.34
2023-04-04T01:45:33.347Z,97907.84
2023-04-04T01:48:01.557Z,97909.53
2023-04-04T01:50:29.830Z,97800.28
2023-04-04T01:52:58.018Z,97904.41
2023-04-04T01:55:26.212Z,97897.53
2023-04-04T01:57:54.323Z,97843.66
2023-04-04T02:00:23.927Z,97902.56
2023-04-04T02:02:52.492Z,97896.59
2023-04-04T02:05:20.755Z,97891.28
2023-04-04T02:07:50.747Z,97893.09
2023-04-04T02:10:19.407Z,97890.44
2023-04-04T02:12:47.581Z,97876.56
2023-04-04T02:15:15.945Z,97762.06
2023-04-04T02:17:48.936Z,97888.66
2023-04-04T02:20:19.655Z,97889.50
2023-04-04T02:22:54.823Z,97882.69
2023-04-04T02:25:23.735Z,97886.91
2023-04-04T02:27:51.819Z,97886.13
2023-04-04T02:30:20.465Z,97880.09
2023-04-04T02:32:50.340Z,97822.00
2023-04-04T02:35:18.729Z,97882.56
2023-04-04T02:37:48.051Z,97880.91
2023-04-04T02:40:16.591Z,97881.75
2023-04-04T02:42:45.662Z,97817.56
2023-04-04T02:45:14.962Z,97874.84
2023-04-04T02:47:43.790Z,97828.13
2023-04-04T02:50:13.510Z,97869.75
2023-04-04T02:52:41.591Z,97826.41
2023-04-04T02:55:10.663Z,97846.38
2023-04-04T02:57:38.975Z,97833.41
2023-04-04T03:00:08.603Z,97854.13
2023-04-04T03:02:37.047Z,97845.59
2023-04-04T03:05:05.595Z,97847.25
2023-04-04T03:07:35.173Z,97836.91
2023-04-04T03:10:03.346Z,97835.19
2023-04-04T03:12:31.822Z,97806.59
2023-04-04T03:14:59.986Z,97839.50
2023-04-04T03:17:28.156Z,97820.41
2023-04-04T03:19:56.320Z,97759.84
2023-04-04T03:22:24.466Z,97822.22
2023-04-04T03:24:54.022Z,97807.44
2023-04-04T03:27:22.278Z,97805.66
2023-04-04T03:29:50.499Z,97777.84
2023-04-04T03:32:19.414Z,97831.53
2023-04-04T03:34:47.665Z,97825.41
2023-04-04T03:37:15.750Z,97820.28
2023-04-04T03:39:43.890Z,97760.63
2023-04-04T03:42:13.683Z,97847.91
2023-04-04T03:44:42.280Z,97813.34
2023-04-04T03:47:10.409Z,97794.34
2023-04-04T03:49:38.574Z,97820.34
2023-04-04T03:52:06.932Z,97717.38
2023-04-04T03:54:35.193Z,97743.31
2023-04-04T03:57:03.883Z,97805.66
2023-04-04T03:59:33.492Z,97807.41
2023-04-04T04:02:01.617Z,97808.19
2023-04-04T04:04:29.818Z,97765.75
2023-04-04T04:06:58.672Z,97813.31
2023-04-04T04:09:27.169Z,97803.88
2023-04-04T04:11:55.317Z,97788.22
2023-04-04T04:14:23.624Z,97809.81
2023-04-04T04:16:53.216Z,97812.25
2023-04-04T04:19:21.629Z,97808.91
2023-04-04T04:21:49.866Z,97688.63
2023-04-04T04:24:18.029Z,97783.00
2023-04-04T04:26:46.148Z,97810.75
2023-04-04T04:29:14.348Z,97809.03
2023-04-04T04:31:42.548Z,97811.69
2023-04-04T04:34:12.143Z,97807.31
2023-04-04T04:36:40.324Z,97795.06
2023-04-04T04:39:08.440Z,97818.44
2023-04-04T04:41:36.835Z,97816.72
2023-04-04T04:44:05.002Z,97816.78
2023-04-04T04:46:33.293Z,97807.25
2023-04-04T04:49:01.535Z,97817.56
2023-04-04T04:51:31.220Z,97819.34
2023-04-04T04:53:59.531Z,97801.16
2023-04-04T04:56:27.659Z,97831.47
2023-04-04T04:58:55.825Z,97749.19
2023-04-04T05:01:24.064Z,97831.59
2023-04-04T05:03:53.468Z,97796.91
2023-04-04T05:06:21.786Z,97842.81
2023-04-04T05:08:51.430Z,97902.25
2023-04-04T05:11:19.599Z,97836.91
2023-04-04T05:13:47.696Z,97816.22
2023-04-04T05:16:15.832Z,97837.00
2023-04-04T05:18:43.977Z,97843.97
2023-04-04T05:21:12.134Z,97819.78
2023-04-04T05:23:40.271Z,97831.91
2023-04-04T05:26:10.373Z,97852.78
2023-04-04T05:28:40.823Z,97845.13
2023-04-04T05:31:08.949Z,97841.72
2023-04-04T05:33:37.045Z,97834.78
2023-04-04T05:36:05.512Z,97854.72
2023-04-04T05:38:33.630Z,97851.31
2023-04-04T05:41:01.862Z,97844.44
2023-04-04T05:43:31.479Z,97862.53
2023-04-04T05:45:59.712Z,97847.94
2023-04-04T05:48:27.850Z,97814.19
2023-04-04T05:50:56.141Z,97856.66
2023-04-04T05:53:24.871Z,97848.03
2023-04-04T05:55:53.949Z,97858.53
2023-04-04T05:58:22.393Z,97862.06
2023-04-04T06:00:52.025Z,97864.66
2023-04-04T06:03:22.051Z,97861.78
2023-04-04T06:05:53.523Z,97851.75
2023-04-04T06:08:21.874Z,97862.06
2023-04-04T06:10:50.111Z,97866.34
2023-04-04T06:13:18.225Z,97856.84
2023-04-04T06:15:46.449Z,97855.03
2023-04-04T06:18:17.539Z,97861.06
2023-04-04T06:20:45.794Z,97857.66
2023-04-04T06:23:14.029Z,97855.16
2023-04-04T06:25:42.317Z,97856.16
2023-04-04T06:28:11.189Z,97852.81
2023-04-04T06:30:40.044Z,97852.03
2023-04-04T06:33:08.653Z,97846.00
2023-04-04T06:35:38.399Z,97855.47
2023-04-04T06:38:06.573Z,97788.84
2023-04-04T06:40:34.801Z,97855.44
2023-04-04T06:43:03.398Z,97745.53
2023-04-04T06:45:33.738Z,97839.84
2023-04-04T06:48:02.528Z,97859.78
2023-04-04T06:50:32.682Z,97852.03
2023-04-04T06:53:03.544Z,97613.34
2023-04-04T06:55:31.740Z,97842.53
2023-04-04T06:58:00.139Z,97857.19
2023-04-04T07:00:28.554Z,97820.84
2023-04-04T07:03:00.555Z,97852.03
2023-04-04T07:05:29.321Z,97871.97
2023-04-04T07:07:57.508Z,97840.03
2023-04-04T07:10:27.477Z,97797.66
2023-04-04T07:12:55.672Z,97853.09
2023-04-04T07:15:23.859Z,97866.91
2023-04-04T07:17:52.381Z,97856.53
2023-04-04T07:20:20.707Z,97870.41
2023-04-04T07:22:50.545Z,97662.03
2023-04-04T07:25:18.780Z,97841.06
2023-04-04T07:27:48.459Z,97860.97
2023-04-04T07:30:17.315Z,97854.06
2023-04-04T07:32:46.145Z,97787.50
2023-04-04T07:35:14.940Z,97850.63
2023-04-04T07:37:43.116Z,97700.19
2023-04-04T07:40:12.221Z,97809.97
2023-04-04T07:42:45.571Z,97829.00
2023-04-04T07:45:15.420Z,97849.75
2023-04-04T07:47:44.980Z,97868.75
2023-04-04T07:50:13.577Z,97834.19
2023-04-04T07:52:42.194Z,97841.09
2023-04-04T07:55:10.955Z,97854.06
2023-04-04T07:57:40.143Z,97730.47
2023-04-04T08:00:10.999Z,97853.19
2023-04-04T08:02:40.852Z,97846.25
2023-04-04T08:05:10.468Z,97830.72
2023-04-04T08:07:38.647Z,97833.31
2023-04-04T08:10:08.191Z,97844.53
2023-04-04T08:12:36.349Z,97836.72
2023-04-04T08:15:04.577Z,97836.66
2023-04-04T08:17:32.899Z,97822.81
2023-04-04T08:20:02.508Z,97808.16
2023-04-04T08:22:30.785Z,97833.22
2023-04-04T08:24:59.019Z,97844.44
2023-04-04T08:27:27.534Z,97819.34
2023-04-04T08:29:55.819Z,97829.63
2023-04-04T08:32:23.870Z,97829.56
2023-04-04T08:34:52.404Z,97812.22
2023-04-04T08:37:22.391Z,97820.00
2023-04-04T08:39:50.287Z,97827.00
2023-04-04T08:42:21.818Z,97695.72
2023-04-04T08:44:52.344Z,97812.19
2023-04-04T08:47:22.852Z,97794.09
2023-04-04T08:49:52.864Z,97808.72
2023-04-04T08:52:25.186Z,97805.22
2023-04-04T08:54:53.301Z,97806.03
2023-04-04T08:57:21.160Z,97807.72
2023-04-04T08:59:49.462Z,97800.78
2023-04-04T09:05:08.545Z,97803.47
2023-04-04T09:07:39.593Z,97787.09
2023-04-04T09:10:11.817Z,97807.84
2023-04-04T09:12:45.671Z,97763.72
2023-04-04T09:15:14.739Z,97798.16
2023-04-04T09:20:29.184Z,97789.28
2023-04-04T09:22:58.513Z,97781.56
2023-04-04T09:25:26.576Z,97783.34
2023-04-04T09:27:54.636Z,97785.88
2023-04-04T09:30:22.583Z,97787.56
2023-04-04T09:32:50.732Z,97782.34
2023-04-04T09:35:18.679Z,97778.81
2023-04-04T09:37:46.916Z,97776.31
2023-04-04T09:40:17.454Z,97764.34
2023-04-04T09:42:45.573Z,97772.81
2023-04-04T09:45:19.615Z,97767.56
2023-04-04T09:47:58.187Z,97760.53
2023-04-04T09:50:28.930Z,97769.13
2023-04-04T09:52:57.973Z,97770.97
2023-04-04T09:55:34.706Z,97767.34
2023-04-04T09:58:12.138Z,97748.94
2023-04-04T10:00:42.309Z,97753.16
2023-04-04T10:03:12.436Z,97752.25
2023-04-04T10:05:40.628Z,97758.47
2023-04-04T10:08:15.814Z,97751.28
2023-04-04T10:10:58.854Z,97752.22
2023-04-04T10:13:36.280Z,97739.28
2023-04-04T10:16:05.085Z,97742.78
2023-04-04T10:18:33.600Z,97747.28
2023-04-04T10:21:14.573Z,97737.84
2023-04-04T10:23:44.045Z,97739.63
2023-04-04T10:26:13.934Z,97738.72
2023-04-04T10:28:42.398Z,97736.13
2023-04-04T10:31:16.324Z,97741.19
2023-04-04T10:33:47.854Z,97737.66
2023-04-04T10:36:18.025Z,97721.94
2023-04-04T10:38:49.994Z,97717.44
2023-04-04T10:41:20.921Z,97723.47
2023-04-04T10:43:49.245Z,97713.84
2023-04-04T10:46:19.800Z,97708.50
2023-04-04T10:48:48.735Z,97726.72
2023-04-04T10:51:17.041Z,97715.69
2023-04-04T10:53:45.004Z,97712.97
2023-04-04T10:56:13.126Z,97698.19
2023-04-04T10:58:43.089Z,97700.59
2023-04-04T11:01:11.379Z,97687.56
2023-04-04T11:07:02.239Z,97704.19
2023-04-04T11:09:52.348Z,97701.44
2023-04-04T11:12:33.689Z,97696.09
2023-04-04T11:15:11.488Z,97690.84
2023-04-04T11:18:00.419Z,97683.81
2023-04-04T11:20:33.668Z,97687.50
2023-04-04T11:23:10.860Z,97671.78
2023-04-04T11:25:43.145Z,97633.25
2023-04-04T11:28:16.001Z,97665.81
2023-04-04T11:30:48.980Z,97675.22
2023-04-04T11:33:30.904Z,97662.91
2023-04-04T11:36:08.606Z,97637.97
2023-04-04T11:38:37.208Z,97660.94
2023-04-04T11:41:08.056Z,97652.81
2023-04-04T11:43:45.851Z,97638.00
2023-04-04T11:46:19.745Z,97645.84
2023-04-04T11:48:49.548Z,97647.47
2023-04-04T11:51:17.762Z,97637.97
2023-04-04T11:53:48.164Z,97642.22
2023-04-04T11:56:17.444Z,97664.03
2023-04-04T11:58:53.813Z,97641.84
2023-04-04T12:01:28.401Z,97636.50
2023-04-04T12:03:56.787Z,97609.22
2023-04-04T12:06:25.497Z,97523.94
2023-04-04T12:08:53.731Z,97610.53
2023-04-04T12:11:22.986Z,97618.34
2023-04-04T12:13:52.459Z,97623.22
2023-04-04T12:16:20.672Z,97621.03
2023-04-04T12:18:50.111Z,97621.09
2023-04-04T12:21:18.661Z,97615.44
2023-04-04T12:23:48.643Z,97621.47
2023-04-04T12:26:16.994Z,97610.34
2023-04-04T12:28:45.698Z,97604.47
2023-04-04T12:31:15.339Z,97621.56
2023-04-04T12:33:43.807Z,97599.41
2023-04-04T12:36:13.599Z,97606.91
2023-04-04T12:38:57.973Z,97591.75
2023-04-04T12:41:26.943Z,97585.66
2023-04-04T12:44:02.420Z,97446.41
2023-04-04T12:46:36.459Z,97587.69
2023-04-04T12:49:05.564Z,97539.03
2023-04-04T12:51:37.554Z,97591.31
2023-04-04T12:54:07.373Z,97603.44
2023-04-04T12:56:37.263Z,97579.06
2023-04-04T12:59:06.255Z,97583.50
2023-04-04T13:01:34.752Z,97586.31
2023-04-04T13:04:05.472Z,97588.84
2023-04-04T13:06:35.167Z,97585.31
2023-04-04T13:09:04.270Z,97580.94
2023-04-04T13:12:08.696Z,97571.84
2023-04-04T13:14:59.157Z,97584.50
2023-04-04T13:17:29.092Z,97439.22
2023-04-04T13:19:57.361Z,97584.38
2023-04-04T13:22:35.899Z,97572.66
2023-04-04T13:25:04.190Z,97566.81
2023-04-04T13:27:32.396Z,97551.25
2023-04-04T13:30:00.594Z,97571.25
2023-04-04T13:32:29.950Z,97576.94
2023-04-04T13:34:59.242Z,97555.06
2023-04-04T13:37:28.845Z,97534.69
2023-04-04T13:39:57.030Z,97577.78
2023-04-04T13:42:30.212Z,97519.47
2023-04-04T13:44:58.632Z,97544.94
2023-04-04T13:47:27.704Z,97462.03
2023-04-04T13:49:56.132Z,97591.16
2023-04-04T13:52:24.339Z,97570.78
2023-04-04T13:54:53.964Z,97579.25
2023-04-04T13:57:22.357Z,97561.97
2023-04-04T13:59:50.641Z,97552.19
2023-04-04T14:02:18.906Z,97570.72
2023-04-04T14:04:47.061Z,97562.50
2023-04-04T14:07:15.273Z,97563.00
2023-04-04T14:09:43.393Z,97568.16
2023-04-04T14:14:42.138Z,97557.41
2023-04-04T14:17:10.334Z,97563.81
2023-04-04T14:19:39.945Z,97573.00
2023-04-04T14:22:08.127Z,97564.56
2023-04-04T14:24:36.284Z,97532.63
2023-04-04T14:27:04.440Z,97550.41
2023-04-04T14:29:34.011Z,97565.69
2023-04-04T14:32:02.211Z,97568.41
2023-04-04T14:34:30.477Z,97568.06
2023-04-04T14:36:58.683Z,97552.31
2023-04-04T14:39:26.862Z,97560.78
2023-04-04T14:41:55.149Z,97576.19
2023-04-04T14:44:25.138Z,97575.78
2023-04-04T14:46:54.782Z,97568.75
2023-04-04T14:49:23.557Z,97574.56
2023-04-04T14:51:52.970Z,97568.69
2023-04-04T14:54:21.118Z,97559.25
2023-04-04T14:56:49.325Z,97574.13
2023-04-04T14:59:17.469Z,97566.06
2023-04-04T15:01:45.412Z,97558.66
2023-04-04T15:04:15.143Z,97510.28
2023-04-04T15:06:43.686Z,97546.31
2023-04-04T15:09:11.828Z,97542.50
2023-04-04T15:11:40.950Z,97537.16
2023-04-04T15:14:09.169Z,97559.16
2023-04-04T15:16:37.352Z,97551.31
2023-04-04T15:19:05.598Z,97560.56
2023-04-04T15:21:35.168Z,97569.25
2023-04-04T15:24:03.460Z,97560.72
2023-04-04T15:26:31.663Z,97545.03
2023-04-04T15:28:59.924Z,97551.88
2023-04-04T15:31:28.302Z,97521.97
2023-04-04T15:33:59.355Z,97565.34
2023-04-04T15:36:28.909Z,97562.81
2023-04-04T15:38:58.597Z,97571.97
2023-04-04T15:41:27.157Z,97567.75
2023-04-04T15:43:56.704Z,97571.19
2023-04-04T15:46:24.991Z,97573.34
2023-04-04T15:48:53.184Z,97562.41
2023-04-04T15:51:22.336Z,97579.66
2023-04-04T15:53:50.589Z,97577.41
2023-04-04T15:56:20.211Z,97534.84
2023-04-04T15:58:48.431Z,97591.91
2023-04-04T16:01:16.708Z,97588.91
2023-04-04T16:03:45.101Z,97583.66
2023-04-04T16:06:14.098Z,97577.75
2023-04-04T16:08:43.841Z,97605.94
2023-04-04T16:11:12.614Z,97618.63
2023-04-04T16:13:42.178Z,97566.38
2023-04-04T16:16:10.694Z,97608.34
2023-04-04T16:18:39.263Z,97609.94
2023-04-04T16:21:07.621Z,97615.00
2023-04-04T16:23:36.344Z,97624.59
2023-04-04T16:26:04.508Z,97617.03
2023-04-04T16:28:32.774Z,97612.00
2023-04-04T16:31:02.499Z,97638.66
2023-04-04T16:33:30.782Z,97645.31
2023-04-04T16:35:59.009Z,97648.72
2023-04-04T16:38:27.216Z,97646.25
2023-04-04T16:40:55.561Z,97660.00
2023-04-04T16:43:23.828Z,97608.09
2023-04-04T16:45:52.800Z,97663.66
2023-04-04T16:48:22.411Z,97664.16
2023-04-04T16:50:50.564Z,97659.38
2023-04-04T16:53:18.777Z,97587.56
2023-04-04T16:55:47.027Z,97671.19
2023-04-04T16:58:15.279Z,97668.81
2023-04-04T17:00:43.897Z,97668.00
2023-04-04T17:03:12.333Z,97676.06
2023-04-04T17:05:41.979Z,97672.84
2023-04-04T17:08:10.160Z,97677.28
2023-04-04T17:10:40.608Z,97682.50
2023-04-04T17:13:09.048Z,97690.31
2023-04-04T17:15:37.196Z,97688.72
2023-04-04T17:18:05.722Z,97685.41
2023-04-04T17:20:34.572Z,97688.97
2023-04-04T17:23:04.332Z,97626.94
2023-04-04T17:25:32.583Z,97670.16
2023-04-04T17:28:00.954Z,97696.16
2023-04-04T17:30:29.158Z,97739.66
2023-04-04T17:32:57.663Z,97650.69
2023-04-04T17:35:25.865Z,97683.50
2023-04-04T17:37:54.142Z,97697.28
2023-04-04T17:40:23.766Z,97682.75
2023-04-04T17:42:52.051Z,97717.31
2023-04-04T17:45:20.685Z,97709.56
2023-04-04T17:47:48.919Z,97716.56
2023-04-04T17:50:17.338Z,97737.41
2023-04-04T17:52:45.805Z,97729.69
2023-04-04T17:55:14.061Z,97727.97
2023-04-04T17:57:45.077Z,97738.41
2023-04-04T18:00:14.989Z,97739.28
2023-04-04T18:02:43.348Z,97747.97
2023-04-04T18:05:12.817Z,97741.94
2023-04-04T18:07:41.377Z,97638.44
2023-04-04T18:10:10.448Z,97750.69
2023-04-04T18:12:39.325Z,97742.94
2023-04-04T18:15:10.423Z,97745.59
2023-04-04T18:17:39.773Z,97756.78
2023-04-04T18:20:09.584Z,97775.00
2023-04-04T18:22:38.084Z,97743.06
2023-04-04T18:25:07.335Z,97773.34
2023-04-04T18:27:35.915Z,97778.50
2023-04-04T18:30:04.230Z,97777.69
2023-04-04T18:32:34.075Z,97755.25
2023-04-04T18:35:03.365Z,97791.56
2023-04-04T18:37:32.027Z,97643.09
2023-04-04T18:40:00.282Z,97765.72
2023-04-04T18:42:28.585Z,97720.84
2023-04-04T18:44:57.126Z,97659.56
2023-04-04T18:47:25.348Z,97682.06
2023-04-04T18:49:55.164Z,97783.09
2023-04-04T18:52:23.389Z,97783.97
2023-04-04T18:54:51.986Z,97805.63
2023-04-04T18:57:20.160Z,97806.50
2023-04-04T18:59:48.912Z,97806.47
2023-04-04T19:02:18.247Z,97815.13
2023-04-04T19:04:48.995Z,97758.94
2023-04-04T19:07:22.055Z,97816.84
2023-04-04T19:09:51.657Z,97830.69
2023-04-04T19:12:19.897Z,97822.03
2023-04-04T19:14:48.187Z,97803.03
2023-04-04T19:17:18.274Z,97819.47
2023-04-04T19:19:47.074Z,97807.38
2023-04-04T19:22:15.326Z,97808.22
2023-04-04T19:24:45.024Z,97821.19
2023-04-04T19:27:13.258Z,97341.25
2023-04-04T19:29:41.623Z,97828.13
2023-04-04T19:32:14.063Z,97833.31
2023-04-04T19:34:43.608Z,97841.09
2023-04-04T19:37:12.680Z,97840.25
2023-04-04T19:39:42.218Z,97813.44
2023-04-04T19:42:12.227Z,97840.25
2023-04-04T19:44:41.573Z,97762.41
2023-04-04T19:47:11.146Z,97844.56
2023-04-04T19:49:39.802Z,97850.63
2023-04-04T19:52:08.816Z,97847.13
2023-04-04T19:54:41.574Z,97848.91
2023-04-04T19:57:21.042Z,97808.25
2023-04-04T19:59:57.996Z,97709.72
2023-04-04T20:03:00.019Z,97854.94
2023-04-04T20:05:57.667Z,97831.56
2023-04-04T20:08:33.820Z,97860.97
2023-04-04T20:11:02.114Z,97855.78
2023-04-04T20:13:32.919Z,97800.44
2023-04-04T20:16:03.808Z,97859.22
2023-04-04T20:18:34.017Z,97857.50
2023-04-04T20:21:05.711Z,97660.38
2023-04-04T20:23:39.174Z,97867.84
2023-04-04T20:26:09.258Z,97816.00
2023-04-04T20:28:38.922Z,97873.06
2023-04-04T20:31:10.915Z,97866.13
2023-04-04T20:33:41.791Z,97867.00
2023-04-04T20:36:30.304Z,97871.31
2023-04-04T20:39:00.135Z,97845.38
2023-04-04T20:41:28.888Z,97874.75
2023-04-04T20:44:00.440Z,97868.69
2023-04-04T20:46:29.105Z,97882.50
2023-04-04T20:48:57.733Z,97875.59
2023-04-04T20:51:28.511Z,97876.44
2023-04-04T20:53:59.150Z,97879.03
2023-04-04T20:56:55.528Z,97859.97
2023-04-04T20:59:33.639Z,97882.50
2023-04-04T21:02:10.174Z,97882.47
2023-04-04T21:04:38.772Z,97879.03
2023-04-04T21:07:08.135Z,97885.03
2023-04-04T21:09:36.571Z,97851.28
2023-04-04T21:12:06.580Z,97882.41
2023-04-04T21:14:37.746Z,97885.00
2023-04-04T21:17:08.216Z,97878.97
2023-04-04T21:19:36.466Z,97877.25
2023-04-04T21:22:07.405Z,97879.81
2023-04-04T21:24:36.906Z,97885.00
2023-04-04T21:27:08.164Z,97878.09
2023-04-04T21:29:37.870Z,97875.47
2023-04-04T21:32:08.140Z,97882.41
2023-04-04T21:34:36.449Z,97877.22
2023-04-04T21:37:07.484Z,97789.81
2023-04-04T21:39:37.953Z,97885.00
2023-04-04T21:42:08.795Z,97843.38
2023-04-04T21:44:39.378Z,97882.34
2023-04-04T21:47:07.684Z,97887.50
2023-04-04T21:49:35.828Z,97857.16
2023-04-04T21:52:04.065Z,97870.13
2023-04-04T21:54:32.297Z,97890.84
2023-04-04T21:57:00.583Z,97879.59
2023-04-04T21:59:28.942Z,97880.50
2023-04-04T22:01:58.740Z,97881.34
2023-04-04T22:04:27.094Z,97878.66
2023-04-04T22:06:55.397Z,97874.31
2023-04-04T22:09:25.895Z,97854.34
2023-04-04T22:11:59.186Z,97854.34
2023-04-04T22:14:27.521Z,97877.75
2023-04-04T22:16:58.992Z,97837.88
2023-04-04T22:19:34.802Z,97876.06
2023-04-04T22:22:03.417Z,97876.94
2023-04-04T22:24:31.934Z,97825.81
2023-04-04T22:27:03.519Z,97910.50
2023-04-04T22:29:31.849Z,97879.41
2023-04-04T22:32:00.107Z,97855.09
2023-04-04T22:34:29.976Z,97886.16
2023-04-04T22:36:59.379Z,97883.56
2023-04-04T22:39:27.759Z,97867.09
2023-04-04T22:41:56.003Z,97881.72
2023-04-04T22:44:25.286Z,97887.63
2023-04-04T22:46:56.983Z,97889.16
2023-04-04T22:49:25.126Z,97888.66
2023-04-04T22:51:55.646Z,97890.28
2023-04-04T22:54:23.725Z,97888.69
2023-04-04T22:56:51.897Z,97883.47
2023-04-04T22:59:20.076Z,97834.91
2023-04-04T23:01:48.270Z,97863.59
2023-04-04T23:04:16.469Z,97888.06
2023-04-04T23:06:46.352Z,97882.84
2023-04-04T23:09:15.946Z,97866.19
2023-04-04T23:11:44.100Z,97775.31
2023-04-04T23:14:15.298Z,97847.25
2023-04-04T23:16:43.893Z,97887.00
2023-04-04T23:19:12.653Z,97889.66
2023-04-04T23:21:40.966Z,97886.97
2023-04-04T23:24:09.214Z,97835.78
2023-04-04T23:26:38.724Z,97892.88
2023-04-04T23:29:07.478Z,97892.00
2023-04-04T23:31:36.551Z,97727.50
2023-04-04T23:34:04.763Z,97856.28
2023-04-04T23:36:32.932Z,97889.22
2023-04-04T23:39:01.163Z,97896.91
2023-04-04T23:41:29.211Z,97891.75
2023-04-04T23:43:58.764Z,97893.50
2023-04-04T23:46:27.018Z,97903.81
2023-04-04T23:48:55.591Z,97900.28
2023-04-04T23:51:25.755Z,97893.25
2023-04-04T23:53:53.916Z,97892.41
2023-04-04T23:56:22.726Z,97784.06
2023-04-04T23:58:51.024Z,97898.44
